createdAt,value
2017-03-21T00:00:48.303Z,996.49
2017-03-21T00:01:48.289Z,996.55
2017-03-21T00:02:48.274Z,996.48
2017-03-21T00:03:48.259Z,996.47
2017-03-21T00:04:48.242Z,996.46
2017-03-21T00:05:48.229Z,996.48
2017-03-21T00:06:48.211Z,996.5
2017-03-21T00:07:48.195Z,996.48
2017-03-21T00:08:48.183Z,996.48
2017-03-21T00:09:48.165Z,996.57
2017-03-21T00:10:48.150Z,996.45
2017-03-21T00:11:48.136Z,996.58
2017-03-21T00:12:48.120Z,996.58
2017-03-21T00:13:48.103Z,996.54
2017-03-21T00:14:48.088Z,996.47
2017-03-21T00:15:48.072Z,996.55
2017-03-21T00:16:48.056Z,996.53
2017-03-21T00:17:48.041Z,996.52
2017-03-21T00:18:48.026Z,996.54
2017-03-21T00:19:48.009Z,996.51
2017-03-21T00:20:47.994Z,996.57
2017-03-21T00:21:47.977Z,996.46
2017-03-21T00:22:47.966Z,996.52
2017-03-21T00:23:47.948Z,996.55
2017-03-21T00:24:47.931Z,996.51
2017-03-21T00:25:47.915Z,996.5
2017-03-21T00:26:47.900Z,996.56
2017-03-21T00:27:47.887Z,996.63
2017-03-21T00:28:47.870Z,996.63
2017-03-21T00:29:47.854Z,996.63
2017-03-21T00:30:47.837Z,996.6
2017-03-21T00:31:47.821Z,996.58
2017-03-21T00:32:47.803Z,996.66
2017-03-21T00:33:47.789Z,996.67
2017-03-21T00:34:47.773Z,996.65
2017-03-21T00:35:47.763Z,996.65
2017-03-21T00:36:47.740Z,996.68
2017-03-21T00:37:47.725Z,996.71
2017-03-21T00:38:47.710Z,996.67
2017-03-21T00:39:47.693Z,996.7
2017-03-21T00:40:47.678Z,996.64
2017-03-21T00:41:47.663Z,996.7
2017-03-21T00:42:47.649Z,996.63
2017-03-21T00:43:47.630Z,996.7
2017-03-21T00:44:47.614Z,996.64
2017-03-21T00:45:47.596Z,996.6
2017-03-21T00:46:47.580Z,996.64
2017-03-21T00:47:47.565Z,996.68
2017-03-21T00:48:47.550Z,996.64
2017-03-21T00:49:47.532Z,996.65
2017-03-21T00:50:47.518Z,996.71
2017-03-21T00:51:47.505Z,996.64
2017-03-21T00:52:47.485Z,996.74
2017-03-21T00:53:47.471Z,996.65
2017-03-21T00:54:47.450Z,996.67
2017-03-21T00:55:47.441Z,996.69
2017-03-21T00:56:47.418Z,996.7
2017-03-21T00:57:47.405Z,996.68
2017-03-21T00:58:47.388Z,996.64
2017-03-21T00:59:47.370Z,996.63
2017-03-21T01:00:47.358Z,996.65
2017-03-21T01:01:47.336Z,996.69
2017-03-21T01:02:47.319Z,996.71
2017-03-21T01:03:47.303Z,996.81
2017-03-21T01:04:47.288Z,996.69
2017-03-21T01:05:47.270Z,996.63
2017-03-21T01:06:47.258Z,996.7
2017-03-21T01:07:47.238Z,996.76
2017-03-21T01:08:47.223Z,996.72
2017-03-21T01:09:47.206Z,996.75
2017-03-21T01:10:47.193Z,996.76
2017-03-21T01:11:47.172Z,996.79
2017-03-21T01:12:47.158Z,996.77
2017-03-21T01:13:47.138Z,996.75
2017-03-21T01:14:47.123Z,996.77
2017-03-21T01:15:47.107Z,996.76
2017-03-21T01:16:47.091Z,996.8
2017-03-21T01:17:47.077Z,996.79
2017-03-21T01:18:47.059Z,996.82
2017-03-21T01:19:47.046Z,996.83
2017-03-21T01:20:47.023Z,996.82
2017-03-21T01:21:47.211Z,996.87
2017-03-21T01:22:46.991Z,996.82
2017-03-21T01:23:46.974Z,996.86
2017-03-21T01:24:46.959Z,996.84
2017-03-21T01:25:46.942Z,996.85
2017-03-21T01:26:46.927Z,996.83
2017-03-21T01:27:46.909Z,996.84
2017-03-21T01:28:46.894Z,996.84
2017-03-21T01:29:46.876Z,996.83
2017-03-21T01:30:46.861Z,996.82
2017-03-21T01:31:46.843Z,996.82
2017-03-21T01:32:46.830Z,996.81
2017-03-21T01:33:46.810Z,996.78
2017-03-21T01:34:46.793Z,996.8
2017-03-21T01:35:46.777Z,996.72
2017-03-21T01:36:46.761Z,996.78
2017-03-21T01:37:46.745Z,996.76
2017-03-21T01:38:46.730Z,996.76
2017-03-21T01:39:46.711Z,996.78
2017-03-21T01:40:46.697Z,996.76
2017-03-21T01:41:46.678Z,996.76
2017-03-21T01:42:46.662Z,996.77
2017-03-21T01:43:46.645Z,996.9
2017-03-21T01:44:46.629Z,996.8
2017-03-21T01:45:46.614Z,996.87
2017-03-21T01:46:46.595Z,996.84
2017-03-21T01:47:46.582Z,996.89
2017-03-21T01:48:46.563Z,996.94
2017-03-21T01:49:46.546Z,996.9
2017-03-21T01:50:46.529Z,996.9
2017-03-21T01:51:46.514Z,996.89
2017-03-21T01:52:46.497Z,996.84
2017-03-21T01:53:46.482Z,996.85
2017-03-21T01:54:46.464Z,996.86
2017-03-21T01:55:46.448Z,996.86
2017-03-21T01:56:46.431Z,996.86
2017-03-21T01:57:46.414Z,996.84
2017-03-21T01:58:46.398Z,996.83
2017-03-21T01:59:46.382Z,996.9
2017-03-21T02:00:46.364Z,996.88
2017-03-21T02:01:46.348Z,996.86
2017-03-21T02:02:46.334Z,996.94
2017-03-21T02:03:46.316Z,996.87
2017-03-21T02:04:46.300Z,996.87
2017-03-21T02:05:46.283Z,996.87
2017-03-21T02:06:46.266Z,996.81
2017-03-21T02:07:46.249Z,996.87
2017-03-21T02:08:46.234Z,996.87
2017-03-21T02:09:46.216Z,996.84
2017-03-21T02:10:46.205Z,996.89
2017-03-21T02:11:46.183Z,996.85
2017-03-21T02:12:46.168Z,996.8
2017-03-21T02:13:46.152Z,996.82
2017-03-21T02:14:46.137Z,996.79
2017-03-21T02:15:46.120Z,996.84
2017-03-21T02:16:46.102Z,996.78
2017-03-21T02:17:46.089Z,996.8
2017-03-21T02:18:46.072Z,996.8
2017-03-21T02:19:46.052Z,996.82
2017-03-21T02:20:46.036Z,996.75
2017-03-21T02:21:46.021Z,996.72
2017-03-21T02:22:46.005Z,996.74
2017-03-21T02:23:45.988Z,996.77
2017-03-21T02:24:45.973Z,996.71
2017-03-21T02:25:45.955Z,996.77
2017-03-21T02:26:45.938Z,996.77
2017-03-21T02:27:45.921Z,996.66
2017-03-21T02:28:45.904Z,996.73
2017-03-21T02:29:45.888Z,996.68
2017-03-21T02:30:45.873Z,996.71
2017-03-21T02:31:45.856Z,996.71
2017-03-21T02:32:45.840Z,996.75
2017-03-21T02:33:45.823Z,996.68
2017-03-21T02:34:45.807Z,996.69
2017-03-21T02:35:45.792Z,996.63
2017-03-21T02:36:45.774Z,996.69
2017-03-21T02:37:45.757Z,996.71
2017-03-21T02:38:45.742Z,996.71
2017-03-21T02:39:45.724Z,996.69
2017-03-21T02:40:45.707Z,996.74
2017-03-21T02:41:45.694Z,996.79
2017-03-21T02:42:45.680Z,996.79
2017-03-21T02:43:45.660Z,996.84
2017-03-21T02:44:45.642Z,996.89
2017-03-21T02:45:45.628Z,996.93
2017-03-21T02:46:45.611Z,996.86
2017-03-21T02:47:45.595Z,996.8
2017-03-21T02:48:45.578Z,996.81
2017-03-21T02:49:45.561Z,996.82
2017-03-21T02:50:45.544Z,996.87
2017-03-21T02:51:45.527Z,996.9
2017-03-21T02:52:45.511Z,996.86
2017-03-21T02:53:45.498Z,996.86
2017-03-21T02:54:45.481Z,996.85
2017-03-21T02:55:45.464Z,996.88
2017-03-21T02:56:45.446Z,996.94
2017-03-21T02:57:45.430Z,996.93
2017-03-21T02:58:45.413Z,996.9
2017-03-21T02:59:45.398Z,996.9
2017-03-21T03:00:45.381Z,996.93
2017-03-21T03:01:45.400Z,996.9
2017-03-21T03:02:45.348Z,996.91
2017-03-21T03:03:45.334Z,996.87
2017-03-21T03:04:45.317Z,996.79
2017-03-21T03:05:45.301Z,996.79
2017-03-21T03:06:45.283Z,996.77
2017-03-21T03:07:45.267Z,996.71
2017-03-21T03:08:45.251Z,996.65
2017-03-21T03:09:45.235Z,996.62
2017-03-21T03:10:45.218Z,996.6
2017-03-21T03:11:45.208Z,996.57
2017-03-21T03:12:45.186Z,996.6
2017-03-21T03:13:45.171Z,996.61
2017-03-21T03:14:45.155Z,996.65
2017-03-21T03:15:45.139Z,996.72
2017-03-21T03:16:45.122Z,996.79
2017-03-21T03:17:45.108Z,996.88
2017-03-21T03:18:45.090Z,996.81
2017-03-21T03:19:45.072Z,996.83
2017-03-21T03:20:45.056Z,996.81
2017-03-21T03:21:45.040Z,996.87
2017-03-21T03:22:45.024Z,996.87
2017-03-21T03:23:45.009Z,996.84
2017-03-21T03:24:44.992Z,996.86
2017-03-21T03:25:44.978Z,996.79
2017-03-21T03:26:44.959Z,996.78
2017-03-21T03:27:44.944Z,996.81
2017-03-21T03:28:44.932Z,996.86
2017-03-21T03:29:44.914Z,996.87
2017-03-21T03:30:44.896Z,996.83
2017-03-21T03:31:44.898Z,996.84
2017-03-21T03:32:44.866Z,996.84
2017-03-21T03:33:44.850Z,996.84
2017-03-21T03:34:44.830Z,996.82
2017-03-21T03:35:44.813Z,996.82
2017-03-21T03:36:44.797Z,996.82
2017-03-21T03:37:44.783Z,996.84
2017-03-21T03:38:44.766Z,996.92
2017-03-21T03:39:44.750Z,996.95
2017-03-21T03:40:44.736Z,996.9
2017-03-21T03:41:44.718Z,996.8
2017-03-21T03:42:44.704Z,996.87
2017-03-21T03:43:44.688Z,996.9
2017-03-21T03:44:44.670Z,996.88
2017-03-21T03:45:44.652Z,996.86
2017-03-21T03:46:44.636Z,996.91
2017-03-21T03:47:44.620Z,996.91
2017-03-21T03:48:44.605Z,996.91
2017-03-21T03:49:44.591Z,996.92
2017-03-21T03:50:44.572Z,996.93
2017-03-21T03:51:44.557Z,996.96
2017-03-21T03:52:44.541Z,997.07
2017-03-21T03:53:44.523Z,996.99
2017-03-21T03:54:44.508Z,997.02
2017-03-21T03:55:44.499Z,997.06
2017-03-21T03:56:44.478Z,997.12
2017-03-21T03:57:44.460Z,997.1
2017-03-21T03:58:44.442Z,997.17
2017-03-21T03:59:44.426Z,997.16
2017-03-21T04:00:44.410Z,997.21
2017-03-21T04:01:44.394Z,997.19
2017-03-21T04:02:44.378Z,997.31
2017-03-21T04:03:44.365Z,997.19
2017-03-21T04:04:44.343Z,997.15
2017-03-21T04:05:44.327Z,997.13
2017-03-21T04:06:44.311Z,997.14
2017-03-21T04:07:44.312Z,997.19
2017-03-21T04:08:44.279Z,997.15
2017-03-21T04:09:44.264Z,997.2
2017-03-21T04:10:44.245Z,997.18
2017-03-21T04:11:44.230Z,997.16
2017-03-21T04:12:44.213Z,997.17
2017-03-21T04:13:44.196Z,997.19
2017-03-21T04:14:44.180Z,997.18
2017-03-21T04:15:44.163Z,997.16
2017-03-21T04:16:44.147Z,997.21
2017-03-21T04:17:44.130Z,997.26
2017-03-21T04:18:44.114Z,997.22
2017-03-21T04:19:44.095Z,997.18
2017-03-21T04:20:44.080Z,997.1
2017-03-21T04:21:44.062Z,997.16
2017-03-21T04:22:44.046Z,997.1
2017-03-21T04:23:44.029Z,997.08
2017-03-21T04:24:44.013Z,997.13
2017-03-21T04:25:43.996Z,997.12
2017-03-21T04:26:43.979Z,997.12
2017-03-21T04:27:43.962Z,997.07
2017-03-21T04:28:43.947Z,997.07
2017-03-21T04:29:43.928Z,997.07
2017-03-21T04:30:43.912Z,997.1
2017-03-21T04:31:43.893Z,997.1
2017-03-21T04:32:43.878Z,997.09
2017-03-21T04:33:43.860Z,997.04
2017-03-21T04:34:43.844Z,997.11
2017-03-21T04:35:43.827Z,997.15
2017-03-21T04:36:43.812Z,997.13
2017-03-21T04:37:43.796Z,997.16
2017-03-21T04:38:43.779Z,997.15
2017-03-21T04:39:43.761Z,997.14
2017-03-21T04:40:43.744Z,997.15
2017-03-21T04:41:43.726Z,997.16
2017-03-21T04:42:43.709Z,997.2
2017-03-21T04:43:43.693Z,997.21
2017-03-21T04:44:43.725Z,997.2
2017-03-21T04:45:43.658Z,997.19
2017-03-21T04:46:43.643Z,997.19
2017-03-21T04:47:43.625Z,997.19
2017-03-21T04:48:43.607Z,997.15
2017-03-21T04:49:43.589Z,997.15
2017-03-21T04:50:43.573Z,997.2
2017-03-21T04:51:43.558Z,997.14
2017-03-21T04:52:43.539Z,997.14
2017-03-21T04:53:43.524Z,997.15
2017-03-21T04:54:43.541Z,997.21
2017-03-21T04:55:43.487Z,997.21
2017-03-21T04:56:43.471Z,997.2
2017-03-21T04:57:43.458Z,997.17
2017-03-21T04:58:43.439Z,997.19
2017-03-21T04:59:43.426Z,997.25
2017-03-21T05:00:43.403Z,997.21
2017-03-21T05:01:43.388Z,997.24
2017-03-21T05:02:43.387Z,997.25
2017-03-21T05:03:43.358Z,997.27
2017-03-21T05:04:43.338Z,997.25
2017-03-21T05:05:43.322Z,997.28
2017-03-21T05:06:43.304Z,997.35
2017-03-21T05:07:43.288Z,997.41
2017-03-21T05:08:43.271Z,997.39
2017-03-21T05:09:43.254Z,997.37
2017-03-21T05:10:43.236Z,997.39
2017-03-21T05:11:43.218Z,997.43
2017-03-21T05:12:43.206Z,997.44
2017-03-21T05:13:43.189Z,997.47
2017-03-21T05:14:43.170Z,997.41
2017-03-21T05:15:43.151Z,997.43
2017-03-21T05:16:43.137Z,997.37
2017-03-21T05:17:43.118Z,997.35
2017-03-21T05:18:43.103Z,997.44
2017-03-21T05:19:43.085Z,997.46
2017-03-21T05:20:43.068Z,997.49
2017-03-21T05:21:43.053Z,997.5
2017-03-21T05:22:43.248Z,997.53
2017-03-21T05:23:43.017Z,997.53
2017-03-21T05:24:43.004Z,997.54
2017-03-21T05:25:42.982Z,997.56
2017-03-21T05:26:42.968Z,997.54
2017-03-21T05:27:42.949Z,997.51
2017-03-21T05:28:42.933Z,997.44
2017-03-21T05:29:42.916Z,997.45
2017-03-21T05:30:42.899Z,997.49
2017-03-21T05:31:42.882Z,997.5
2017-03-21T05:32:42.865Z,997.48
2017-03-21T05:33:42.852Z,997.41
2017-03-21T05:34:42.833Z,997.49
2017-03-21T05:35:42.818Z,997.45
2017-03-21T05:36:42.796Z,997.51
2017-03-21T05:37:42.783Z,997.5
2017-03-21T05:38:42.764Z,997.52
2017-03-21T05:39:42.746Z,997.52
2017-03-21T05:40:42.732Z,997.55
2017-03-21T05:41:42.714Z,997.56
2017-03-21T05:42:42.697Z,997.54
2017-03-21T05:43:42.680Z,997.55
2017-03-21T05:44:42.663Z,997.54
2017-03-21T05:45:42.697Z,997.57
2017-03-21T05:46:42.632Z,997.57
2017-03-21T05:47:42.616Z,997.6
2017-03-21T05:48:42.596Z,997.62
2017-03-21T05:49:42.584Z,997.66
2017-03-21T05:50:42.570Z,997.67
2017-03-21T05:51:42.547Z,997.7
2017-03-21T05:52:42.532Z,997.68
2017-03-21T05:53:42.521Z,997.67
2017-03-21T05:54:42.496Z,997.66
2017-03-21T05:55:42.480Z,997.71
2017-03-21T05:56:42.464Z,997.75
2017-03-21T05:57:42.446Z,997.74
2017-03-21T05:58:42.429Z,997.7
2017-03-21T05:59:42.413Z,997.68
2017-03-21T06:00:42.396Z,997.7
2017-03-21T06:01:42.378Z,997.7
2017-03-21T06:02:42.366Z,997.73
2017-03-21T06:03:42.346Z,997.69
2017-03-21T06:04:42.331Z,997.69
2017-03-21T06:05:42.312Z,997.71
2017-03-21T06:06:42.296Z,997.69
2017-03-21T06:07:42.279Z,997.69
2017-03-21T06:08:42.263Z,997.75
2017-03-21T06:09:42.246Z,997.71
2017-03-21T06:10:42.232Z,997.73
2017-03-21T06:11:42.213Z,997.72
2017-03-21T06:12:42.199Z,997.79
2017-03-21T06:13:42.179Z,997.82
2017-03-21T06:14:42.163Z,997.87
2017-03-21T06:15:42.146Z,997.86
2017-03-21T06:16:42.134Z,997.86
2017-03-21T06:17:42.115Z,997.81
2017-03-21T06:18:42.100Z,997.8
2017-03-21T06:19:42.079Z,997.8
2017-03-21T06:20:42.072Z,997.78
2017-03-21T06:21:42.046Z,997.79
2017-03-21T06:22:42.031Z,997.84
2017-03-21T06:23:42.012Z,997.84
2017-03-21T06:24:41.996Z,997.87
2017-03-21T06:25:41.979Z,997.92
2017-03-21T06:26:41.965Z,997.93
2017-03-21T06:27:41.947Z,997.95
2017-03-21T06:28:41.930Z,997.94
2017-03-21T06:29:41.914Z,997.96
2017-03-21T06:30:41.897Z,997.96
2017-03-21T06:31:41.881Z,997.92
2017-03-21T06:32:41.865Z,997.93
2017-03-21T06:33:41.848Z,997.95
2017-03-21T06:34:41.834Z,997.93
2017-03-21T06:35:41.815Z,997.93
2017-03-21T06:36:41.798Z,997.85
2017-03-21T06:37:41.787Z,997.89
2017-03-21T06:38:41.764Z,997.85
2017-03-21T06:39:41.749Z,997.85
2017-03-21T06:40:41.734Z,997.87
2017-03-21T06:41:41.715Z,997.85
2017-03-21T06:42:41.700Z,997.83
2017-03-21T06:43:41.683Z,997.9
2017-03-21T06:44:41.667Z,997.91
2017-03-21T06:45:41.651Z,997.93
2017-03-21T06:46:41.634Z,997.93
2017-03-21T06:47:41.618Z,997.95
2017-03-21T06:48:41.603Z,997.91
2017-03-21T06:49:41.585Z,997.96
2017-03-21T06:50:41.569Z,998.01
2017-03-21T06:51:41.552Z,997.98
2017-03-21T06:52:41.537Z,998.08
2017-03-21T06:53:41.522Z,998.05
2017-03-21T06:54:41.503Z,998.04
2017-03-21T06:55:41.520Z,998
2017-03-21T06:56:41.471Z,998
2017-03-21T06:57:41.457Z,998.07
2017-03-21T06:58:41.438Z,998.05
2017-03-21T06:59:41.422Z,998.06
2017-03-21T07:00:41.405Z,998.04
2017-03-21T07:01:41.390Z,998.06
2017-03-21T07:02:41.375Z,998
2017-03-21T07:03:41.356Z,998.01
2017-03-21T07:04:41.340Z,997.98
2017-03-21T07:05:41.324Z,998.03
2017-03-21T07:06:41.309Z,998.06
2017-03-21T07:07:41.293Z,998.11
2017-03-21T07:08:41.277Z,998.13
2017-03-21T07:09:41.261Z,998.16
2017-03-21T07:10:41.246Z,998.19
2017-03-21T07:11:41.229Z,998.16
2017-03-21T07:12:41.213Z,998.19
2017-03-21T07:13:41.199Z,998.18
2017-03-21T07:14:41.179Z,998.25
2017-03-21T07:15:41.164Z,998.26
2017-03-21T07:16:41.150Z,998.25
2017-03-21T07:17:41.134Z,998.29
2017-03-21T07:18:41.117Z,998.3
2017-03-21T07:19:41.100Z,998.33
2017-03-21T07:20:41.084Z,998.35
2017-03-21T07:21:41.068Z,998.34
2017-03-21T07:22:41.253Z,998.38
2017-03-21T07:23:41.036Z,998.32
2017-03-21T07:24:41.021Z,998.42
2017-03-21T07:25:41.005Z,998.37
2017-03-21T07:26:40.987Z,998.31
2017-03-21T07:27:40.973Z,998.33
2017-03-21T07:28:40.956Z,998.33
2017-03-21T07:29:40.940Z,998.33
2017-03-21T07:30:40.925Z,998.39
2017-03-21T07:31:40.915Z,998.36
2017-03-21T07:32:40.893Z,998.52
2017-03-21T07:33:40.877Z,998.42
2017-03-21T07:34:40.861Z,998.52
2017-03-21T07:35:40.845Z,998.5
2017-03-21T07:36:40.831Z,998.58
2017-03-21T07:37:40.816Z,998.53
2017-03-21T07:38:40.801Z,998.54
2017-03-21T07:39:40.798Z,998.58
2017-03-21T07:40:40.774Z,998.48
2017-03-21T07:41:40.751Z,998.51
2017-03-21T07:42:40.737Z,998.51
2017-03-21T07:43:40.721Z,998.55
2017-03-21T07:44:40.706Z,998.6
2017-03-21T07:45:40.690Z,998.55
2017-03-21T07:46:40.675Z,998.63
2017-03-21T07:47:40.659Z,998.63
2017-03-21T07:48:40.645Z,998.6
2017-03-21T07:49:40.628Z,998.59
2017-03-21T07:50:40.614Z,998.6
2017-03-21T07:51:40.596Z,998.62
2017-03-21T07:52:40.582Z,998.68
2017-03-21T07:53:40.567Z,998.67
2017-03-21T07:54:40.551Z,998.61
2017-03-21T07:55:40.533Z,998.66
2017-03-21T07:56:40.520Z,998.68
2017-03-21T07:57:40.505Z,998.74
2017-03-21T07:58:40.489Z,998.72
2017-03-21T07:59:40.475Z,998.71
2017-03-21T08:00:40.460Z,998.79
2017-03-21T08:01:40.443Z,998.67
2017-03-21T08:02:40.428Z,998.69
2017-03-21T08:03:40.413Z,998.7
2017-03-21T08:04:40.397Z,998.79
2017-03-21T08:05:40.381Z,998.79
2017-03-21T08:06:40.366Z,998.8
2017-03-21T08:07:40.352Z,998.76
2017-03-21T08:08:40.337Z,998.78
2017-03-21T08:09:40.323Z,998.79
2017-03-21T08:10:40.307Z,998.8
2017-03-21T08:11:40.291Z,998.77
2017-03-21T08:12:40.276Z,998.85
2017-03-21T08:13:40.259Z,998.82
2017-03-21T08:14:40.246Z,998.83
2017-03-21T08:15:40.232Z,998.87
2017-03-21T08:16:40.215Z,998.84
2017-03-21T08:17:40.200Z,998.84
2017-03-21T08:18:40.185Z,998.88
2017-03-21T08:19:40.169Z,998.91
2017-03-21T08:20:40.156Z,998.89
2017-03-21T08:21:40.140Z,998.96
2017-03-21T08:22:40.126Z,998.92
2017-03-21T08:23:40.114Z,999.02
2017-03-21T08:24:40.096Z,999.07
2017-03-21T08:25:40.084Z,999.09
2017-03-21T08:26:40.068Z,999.03
2017-03-21T08:27:40.054Z,999.06
2017-03-21T08:28:40.041Z,999.03
2017-03-21T08:29:40.027Z,999.04
2017-03-21T08:30:40.013Z,999.12
2017-03-21T08:31:39.998Z,999.09
2017-03-21T08:32:39.985Z,999.15
2017-03-21T08:33:39.973Z,999.22
2017-03-21T08:34:39.960Z,999
2017-03-21T08:35:39.946Z,999.04
2017-03-21T08:36:39.934Z,999.11
2017-03-21T08:37:39.920Z,999.11
2017-03-21T08:38:39.907Z,999.05
2017-03-21T08:39:39.895Z,999.06
2017-03-21T08:40:39.882Z,999.09
2017-03-21T08:41:39.871Z,999.11
2017-03-21T08:42:39.858Z,999.12
2017-03-21T08:43:39.875Z,999.01
2017-03-21T08:44:39.831Z,999.06
2017-03-21T08:45:39.820Z,999.08
2017-03-21T08:46:39.808Z,999.08
2017-03-21T08:47:39.793Z,999.07
2017-03-21T08:48:39.782Z,999.1
2017-03-21T08:49:39.772Z,999.1
2017-03-21T08:50:39.755Z,999.21
2017-03-21T08:51:39.744Z,999.13
2017-03-21T08:52:39.733Z,999.11
2017-03-21T08:53:39.718Z,999.15
2017-03-21T08:54:39.702Z,999.11
2017-03-21T08:55:39.691Z,999.09
2017-03-21T08:56:39.682Z,999.18
2017-03-21T08:57:39.665Z,999.09
2017-03-21T08:58:39.653Z,999.15
2017-03-21T08:59:39.640Z,999.12
2017-03-21T09:00:39.629Z,999.11
2017-03-21T09:01:39.613Z,999.14
2017-03-21T09:02:39.606Z,999.08
2017-03-21T09:03:39.587Z,999.1
2017-03-21T09:04:39.572Z,999.15
2017-03-21T09:05:39.562Z,999.07
2017-03-21T09:06:39.548Z,999.04
2017-03-21T09:07:39.535Z,999.06
2017-03-21T09:08:39.521Z,999.13
2017-03-21T09:09:39.509Z,999.09
2017-03-21T09:10:39.495Z,999.04
2017-03-21T09:11:39.482Z,999.13
2017-03-21T09:12:39.471Z,999.08
2017-03-21T09:13:39.456Z,999.1
2017-03-21T09:14:39.443Z,999.08
2017-03-21T09:15:39.429Z,999.06
2017-03-21T09:16:39.418Z,999.06
2017-03-21T09:17:39.404Z,999.08
2017-03-21T09:18:39.391Z,999
2017-03-21T09:19:39.378Z,999.02
2017-03-21T09:20:39.365Z,999.08
2017-03-21T09:21:39.355Z,999.06
2017-03-21T09:22:39.540Z,999.04
2017-03-21T09:23:39.324Z,999.08
2017-03-21T09:24:39.311Z,999.1
2017-03-21T09:25:39.299Z,999.13
2017-03-21T09:26:39.286Z,999.11
2017-03-21T09:27:39.275Z,999.12
2017-03-21T09:28:39.256Z,999.18
2017-03-21T09:29:39.242Z,999.15
2017-03-21T09:30:39.229Z,999.15
2017-03-21T09:31:39.216Z,999.2
2017-03-21T09:32:39.204Z,999.17
2017-03-21T09:33:39.185Z,999.17
2017-03-21T09:34:39.175Z,999.23
2017-03-21T09:35:39.159Z,999.29
2017-03-21T09:36:39.146Z,999.17
2017-03-21T09:37:39.130Z,999.22
2017-03-21T09:38:39.118Z,999.21
2017-03-21T09:39:39.104Z,999.24
2017-03-21T09:40:39.092Z,999.27
2017-03-21T09:41:39.073Z,999.23
2017-03-21T09:42:39.061Z,999.25
2017-03-21T09:43:39.044Z,999.25
2017-03-21T09:44:39.029Z,999.27
2017-03-21T09:45:39.014Z,999.25
2017-03-21T09:46:39.000Z,999.29
2017-03-21T09:47:38.988Z,999.31
2017-03-21T09:48:38.973Z,999.31
2017-03-21T09:49:38.958Z,999.38
2017-03-21T09:50:38.943Z,999.36
2017-03-21T09:51:38.926Z,999.38
2017-03-21T09:52:38.911Z,999.42
2017-03-21T09:53:38.902Z,999.47
2017-03-21T09:54:38.883Z,999.45
2017-03-21T09:55:38.867Z,999.48
2017-03-21T09:56:38.855Z,999.49
2017-03-21T09:57:38.838Z,999.5
2017-03-21T09:58:38.825Z,999.5
2017-03-21T09:59:38.808Z,999.5
2017-03-21T10:00:38.793Z,999.44
2017-03-21T10:01:38.779Z,999.41
2017-03-21T10:02:38.765Z,999.42
2017-03-21T10:03:38.750Z,999.44
2017-03-21T10:04:38.735Z,999.44
2017-03-21T10:05:38.720Z,999.45
2017-03-21T10:06:38.703Z,999.45
2017-03-21T10:07:38.689Z,999.61
2017-03-21T10:08:38.674Z,999.71
2017-03-21T10:09:38.659Z,999.73
2017-03-21T10:10:38.649Z,999.8
2017-03-21T10:11:38.632Z,999.81
2017-03-21T10:12:38.614Z,999.74
2017-03-21T10:13:38.599Z,999.75
2017-03-21T10:14:38.582Z,999.83
2017-03-21T10:15:38.567Z,999.81
2017-03-21T10:16:38.555Z,999.83
2017-03-21T10:17:38.536Z,999.79
2017-03-21T10:18:38.551Z,1000.14
2017-03-21T10:19:38.504Z,999.89
2017-03-21T10:20:38.490Z,999.96
2017-03-21T10:21:38.472Z,999.87
2017-03-21T10:22:38.457Z,999.98
2017-03-21T10:23:38.443Z,1000.03
2017-03-21T10:24:38.423Z,1000.07
2017-03-21T10:25:38.409Z,1000.04
2017-03-21T10:26:38.391Z,1000.06
2017-03-21T10:27:38.377Z,1000
2017-03-21T10:28:38.359Z,1000.07
2017-03-21T10:29:38.340Z,1000.09
2017-03-21T10:30:38.325Z,1000.04
2017-03-21T10:31:38.308Z,1000.02
2017-03-21T10:32:38.291Z,1000.02
2017-03-21T10:33:38.274Z,1000.02
2017-03-21T10:34:38.257Z,999.99
2017-03-21T10:35:38.241Z,999.92
2017-03-21T10:36:38.224Z,999.9
2017-03-21T10:37:38.206Z,999.89
2017-03-21T10:38:38.196Z,999.86
2017-03-21T10:39:38.174Z,999.93
2017-03-21T10:40:38.156Z,1000.02
2017-03-21T10:41:38.140Z,999.99
2017-03-21T10:42:38.125Z,999.96
2017-03-21T10:43:38.106Z,1000
2017-03-21T10:44:38.089Z,1000
2017-03-21T10:45:38.072Z,999.96
2017-03-21T10:46:38.055Z,1000.02
2017-03-21T10:47:38.039Z,1000.03
2017-03-21T10:48:38.023Z,1000.04
2017-03-21T10:49:38.006Z,1000.01
2017-03-21T10:50:37.987Z,999.99
2017-03-21T10:51:37.972Z,1000.03
2017-03-21T10:52:37.958Z,1000.07
2017-03-21T10:53:37.940Z,1000.01
2017-03-21T10:54:37.922Z,1000.06
2017-03-21T10:55:37.908Z,1000.05
2017-03-21T10:56:37.892Z,999.97
2017-03-21T10:57:37.874Z,999.97
2017-03-21T10:58:37.857Z,999.96
2017-03-21T10:59:37.843Z,1000
2017-03-21T11:00:37.826Z,1000.05
2017-03-21T11:01:37.809Z,1000.05
2017-03-21T11:02:37.794Z,1000.06
2017-03-21T11:03:37.777Z,1000.02
2017-03-21T11:04:37.761Z,1000.08
2017-03-21T11:05:37.752Z,1000.12
2017-03-21T11:06:37.734Z,1000.14
2017-03-21T11:07:37.719Z,1000.16
2017-03-21T11:08:37.702Z,1000.22
2017-03-21T11:09:37.688Z,1000.14
2017-03-21T11:10:37.675Z,1000.2
2017-03-21T11:11:37.663Z,1000.18
2017-03-21T11:12:37.648Z,1000.19
2017-03-21T11:13:37.635Z,1000.25
2017-03-21T11:14:37.622Z,1000.27
2017-03-21T11:15:37.607Z,1000.26
2017-03-21T11:16:37.594Z,1000.16
2017-03-21T11:17:37.587Z,1000.26
2017-03-21T11:18:37.568Z,1000.27
2017-03-21T11:19:37.555Z,1000.22
2017-03-21T11:20:37.540Z,1000.21
2017-03-21T11:21:37.528Z,1000.18
2017-03-21T11:22:37.715Z,1000.24
2017-03-21T11:23:37.499Z,1000.37
2017-03-21T11:24:37.486Z,1000.49
2017-03-21T11:25:37.472Z,1000.36
2017-03-21T11:26:37.458Z,1000.39
2017-03-21T11:27:37.445Z,1000.46
2017-03-21T11:28:37.433Z,1000.39
2017-03-21T11:29:37.420Z,1000.33
2017-03-21T11:30:37.409Z,1000.27
2017-03-21T11:31:37.395Z,1000.32
2017-03-21T11:32:37.387Z,1000.32
2017-03-21T11:33:37.372Z,1000.35
2017-03-21T11:34:37.360Z,1000.25
2017-03-21T11:35:37.347Z,1000.31
2017-03-21T11:36:37.337Z,1000.3
2017-03-21T11:37:37.323Z,1000.27
2017-03-21T11:38:37.312Z,1000.35
2017-03-21T11:39:37.299Z,1000.35
2017-03-21T11:40:37.285Z,1000.31
2017-03-21T11:41:37.273Z,1000.39
2017-03-21T11:42:37.260Z,1000.37
2017-03-21T11:43:37.249Z,1000.42
2017-03-21T11:44:37.237Z,1000.53
2017-03-21T11:45:37.222Z,1000.45
2017-03-21T11:46:37.213Z,1000.44
2017-03-21T11:47:37.200Z,1000.39
2017-03-21T11:48:37.187Z,1000.44
2017-03-21T11:49:37.176Z,1000.53
2017-03-21T11:50:37.163Z,1000.45
2017-03-21T11:51:37.152Z,1000.49
2017-03-21T11:52:37.139Z,1000.42
2017-03-21T11:53:37.129Z,1000.46
2017-03-21T11:54:37.118Z,1000.53
2017-03-21T11:55:37.109Z,1000.43
2017-03-21T11:56:37.101Z,1000.57
2017-03-21T11:57:37.089Z,1000.5
2017-03-21T11:58:37.083Z,1000.5
2017-03-21T11:59:37.072Z,1000.48
2017-03-21T12:00:37.064Z,1000.46
2017-03-21T12:01:37.056Z,1000.46
2017-03-21T12:02:37.048Z,1000.41
2017-03-21T12:03:37.042Z,1000.38
2017-03-21T12:04:37.037Z,1000.42
2017-03-21T12:05:37.028Z,1000.37
2017-03-21T12:06:37.024Z,1000.44
2017-03-21T12:07:37.015Z,1000.41
2017-03-21T12:08:37.010Z,1000.51
2017-03-21T12:09:37.004Z,1000.51
2017-03-21T12:10:36.997Z,1000.54
2017-03-21T12:11:36.991Z,1000.52
2017-03-21T12:12:36.986Z,1000.48
2017-03-21T12:13:36.979Z,1000.44
2017-03-21T12:14:36.973Z,1000.39
2017-03-21T12:15:36.967Z,1000.43
2017-03-21T12:16:36.962Z,1000.44
2017-03-21T12:17:36.956Z,1000.48
2017-03-21T12:18:36.950Z,1000.49
2017-03-21T12:19:36.941Z,1000.49
2017-03-21T12:20:36.937Z,1000.49
2017-03-21T12:21:36.929Z,1000.51
2017-03-21T12:22:36.920Z,1000.54
2017-03-21T12:23:36.913Z,1000.57
2017-03-21T12:24:36.906Z,1000.59
2017-03-21T12:25:36.897Z,1000.68
2017-03-21T12:26:36.937Z,1000.68
2017-03-21T12:27:36.882Z,1000.71
2017-03-21T12:28:36.877Z,1000.64